Ocean Alliance — H8WU — position and weather

sailwx.info

Track history (hours):
 
Tides and Currents Weather Stations Pressure Air Temp Water Temp Dewpoint Dewpoint Depression Visibility Wind Speed Wind Dir Waves Ship Positions

Ocean Alliance

Last reported at 2016-Sep-14 17:33 UTC. Time now 2016-Sep-28 00:02 UTC.
Position N 01°53' E 102°25'.
Warning: this ship's position is 13 days out of date.

Length 190 m; draft 11 m.

Type: Cargo ship. MMSI: 370912000.

Date/timePositionNaut miles runAvg speedWind from/ knotsBaromVisibWave heightAir tempDewpointWater temp
2016-Sep-14 17:33N 01°53' E 102°25'1111.4
2016-Sep-14 16:33N 01°48' E 102°36'7510.1
2016-Sep-14 09:08N 01°11' E 103°40'6 9.5
2016-Sep-14 08:28N 01°10' E 103°47'9 9.7
2016-Sep-14 07:33N 01°14' E 103°55'4 4.4
2016-Sep-14 06:34N 01°16' E 103°58'2 0.5
2016-Sep-14 03:11N 01°17' E 103°59'0 0.0
2016-Sep-13 20:20N 01°17' E 103°59'0 0.0
2016-Sep-13 18:32N 01°17' E 103°59'0 0.0
2016-Sep-13 17:32N 01°17' E 103°59'0 0.0
2016-Sep-13 16:29N 01°17' E 103°59'0 0.1
2016-Sep-13 11:32N 01°18' E 103°59'0 0.0
2016-Sep-13 09:20N 01°17' E 103°59'0 0.0
2016-Sep-13 07:32N 01°17' E 103°59'0 0.0
2016-Sep-13 04:20N 01°18' E 103°59'0 0.0
2016-Sep-13 02:26N 01°18' E 103°59'0 0.0
2016-Sep-12 23:20N 01°18' E 103°59'0 0.1
2016-Sep-12 21:32N 01°17' E 103°59'0 0.0
2016-Sep-12 19:32N 01°17' E 103°59'0 0.0
2016-Sep-12 17:20N 01°17' E 103°59'0 0.0
2016-Sep-12 14:20N 01°17' E 103°59'0 0.0
2016-Sep-12 13:32N 01°18' E 103°59'0 0.1
2016-Sep-12 12:32N 01°18' E 103°59'0 0.1
2016-Sep-12 10:20N 01°18' E 103°59'0 0.0
2016-Sep-12 07:29N 01°17' E 103°59'0 0.0
2016-Sep-12 06:32N 01°17' E 103°59'0 0.1
2016-Sep-12 03:32N 01°18' E 103°59'0 0.0
2016-Sep-11 22:26N 01°18' E 103°59'0 0.0
2016-Sep-11 20:29N 01°17' E 103°59'0 0.0
2016-Sep-11 19:26N 01°17' E 103°59'0 0.0
2016-Sep-11 15:11N 01°17' E 103°59'0 0.0
2016-Sep-11 14:32N 01°17' E 103°59'0 0.0
2016-Sep-11 02:05N 01°17' E 103°59'0 0.0
2016-Sep-11 00:29N 01°17' E 103°59'0 0.0
2016-Sep-10 19:14N 01°17' E 103°59'0 0.0
2016-Sep-10 12:20N 01°17' E 103°59'0 0.0
2016-Sep-10 09:20N 01°18' E 103°59'0 0.0
2016-Sep-10 07:29N 01°18' E 103°59'0 0.1
2016-Sep-10 04:23N 01°17' E 103°59'0 0.0
2016-Sep-10 02:32N 01°17' E 103°59'0 0.1
2016-Sep-09 23:32N 01°17' E 103°59'0 0.0
2016-Sep-09 21:32N 01°17' E 103°59'0 0.0
2016-Sep-09 17:29N 01°17' E 103°59'0 0.1
2016-Sep-09 16:29N 01°17' E 103°59'2 1.4
2016-Sep-09 15:14N 01°16' E 103°58'  
Track history (hours):
 
Tides and Currents Weather Stations Pressure Air Temp Water Temp Dewpoint Dewpoint Depression Visibility Wind Speed Wind Dir Waves Ship Positions

Ocean Alliance

Last reported at 2016-Sep-14 17:33 UTC. Time now 2016-Sep-28 00:02 UTC.
Position N 01°53' E 102°25'.
Warning: this ship's position is 13 days out of date.

Length 190 m; draft 11 m.

Type: Cargo ship. MMSI: 370912000.

Date/timePositionNaut miles runAvg speedWind from/ knotsBaromVisibWave heightAir tempDewpointWater temp
2016-Sep-14 17:33N 01°53' E 102°25'1111.4
2016-Sep-14 16:33N 01°48' E 102°36'7510.1
2016-Sep-14 09:08N 01°11' E 103°40'6 9.5
2016-Sep-14 08:28N 01°10' E 103°47'9 9.7
2016-Sep-14 07:33N 01°14' E 103°55'4 4.4
2016-Sep-14 06:34N 01°16' E 103°58'2 0.5
2016-Sep-14 03:11N 01°17' E 103°59'0 0.0
2016-Sep-13 20:20N 01°17' E 103°59'0 0.0
2016-Sep-13 18:32N 01°17' E 103°59'0 0.0
2016-Sep-13 17:32N 01°17' E 103°59'0 0.0
2016-Sep-13 16:29N 01°17' E 103°59'0 0.1
2016-Sep-13 11:32N 01°18' E 103°59'0 0.0
2016-Sep-13 09:20N 01°17' E 103°59'0 0.0
2016-Sep-13 07:32N 01°17' E 103°59'0 0.0
2016-Sep-13 04:20N 01°18' E 103°59'0 0.0
2016-Sep-13 02:26N 01°18' E 103°59'0 0.0
2016-Sep-12 23:20N 01°18' E 103°59'0 0.1
2016-Sep-12 21:32N 01°17' E 103°59'0 0.0
2016-Sep-12 19:32N 01°17' E 103°59'0 0.0
2016-Sep-12 17:20N 01°17' E 103°59'0 0.0
2016-Sep-12 14:20N 01°17' E 103°59'0 0.0
2016-Sep-12 13:32N 01°18' E 103°59'0 0.1
2016-Sep-12 12:32N 01°18' E 103°59'0 0.1
2016-Sep-12 10:20N 01°18' E 103°59'0 0.0
2016-Sep-12 07:29N 01°17' E 103°59'0 0.0
2016-Sep-12 06:32N 01°17' E 103°59'0 0.1
2016-Sep-12 03:32N 01°18' E 103°59'0 0.0
2016-Sep-11 22:26N 01°18' E 103°59'0 0.0
2016-Sep-11 20:29N 01°17' E 103°59'0 0.0
2016-Sep-11 19:26N 01°17' E 103°59'0 0.0
2016-Sep-11 15:11N 01°17' E 103°59'0 0.0
2016-Sep-11 14:32N 01°17' E 103°59'0 0.0
2016-Sep-11 02:05N 01°17' E 103°59'0 0.0
2016-Sep-11 00:29N 01°17' E 103°59'0 0.0
2016-Sep-10 19:14N 01°17' E 103°59'0 0.0
2016-Sep-10 12:20N 01°17' E 103°59'0 0.0
2016-Sep-10 09:20N 01°18' E 103°59'0 0.0
2016-Sep-10 07:29N 01°18' E 103°59'0 0.1
2016-Sep-10 04:23N 01°17' E 103°59'0 0.0
2016-Sep-10 02:32N 01°17' E 103°59'0 0.1
2016-Sep-09 23:32N 01°17' E 103°59'0 0.0
2016-Sep-09 21:32N 01°17' E 103°59'0 0.0
2016-Sep-09 17:29N 01°17' E 103°59'0 0.1
2016-Sep-09 16:29N 01°17' E 103°59'2 1.4
2016-Sep-09 15:14N 01°16' E 103°58'  

Dump ship's entire track history